Time;durP1;ratioP1;P1;durP2;ratioP2;P2;SDS_P1;SDS_P2;PMS_P1;PMS_P2;Temp;Humidity;BMP_temperature;BMP_pressure;BME280_temperature;BME280_humidity;BME280_pressure;Samples;Min_cycle;Max_cycle;Signal;HPM_P1;HPM_P2
2022/01/25 00:08:54;;;;;;;92.30;52.33;;;4.30;99.90;;;;;;5052102;28;20052;-42
2022/01/25 00:25:09;;;;;;;88.15;52.08;;;4.30;99.90;;;;;;5052797;28;20045;-41
2022/01/25 00:27:47;;;;;;;86.55;49.80;;;4.30;99.90;;;;;;5047706;28;20389;-41
2022/01/25 00:30:31;;;;;;;85.28;48.67;;;4.30;99.90;;;;;;5048434;28;20053;-41
2022/01/25 00:32:58;;;;;;;89.63;51.83;;;4.30;99.90;;;;;;5049943;28;20061;-41
2022/01/25 00:35:24;;;;;;;85.45;50.78;;;4.30;99.90;;;;;;5052847;28;20171;-41
2022/01/25 00:37:51;;;;;;;88.30;50.63;;;4.30;99.90;;;;;;5044998;28;20091;-44
2022/01/25 00:40:19;;;;;;;89.22;51.78;;;4.30;99.90;;;;;;5050321;28;20041;-41
2022/01/25 00:42:46;;;;;;;87.93;51.08;;;4.30;99.90;;;;;;5047298;28;20136;-44
2022/01/25 00:45:15;;;;;;;86.55;50.75;;;4.30;99.90;;;;;;5046113;28;20053;-42
2022/01/25 00:47:46;;;;;;;91.13;52.30;;;4.30;99.90;;;;;;5051671;28;20135;-42
2022/01/25 00:50:15;;;;;;;92.32;51.30;;;4.30;99.90;;;;;;5048866;28;20071;-41
2022/01/25 00:55:28;;;;;;;91.07;50.88;;;4.30;99.90;;;;;;5046115;28;20497;-41
2022/01/25 00:57:55;;;;;;;81.32;48.22;;;4.20;99.90;;;;;;5052596;28;20453;-42
2022/01/25 01:00:22;;;;;;;89.10;50.85;;;4.30;99.90;;;;;;5048525;28;20059;-42
2022/01/25 01:02:49;;;;;;;83.65;50.20;;;4.30;99.90;;;;;;5051541;28;20131;-42
2022/01/25 01:05:16;;;;;;;91.47;52.28;;;4.30;99.90;;;;;;5049740;28;20404;-41
2022/01/25 01:07:43;;;;;;;88.80;51.33;;;4.30;99.90;;;;;;5045295;28;20047;-42
2022/01/25 01:10:12;;;;;;;89.85;52.60;;;4.20;99.90;;;;;;5051793;28;20131;-42
2022/01/25 01:13:11;;;;;;;89.32;50.75;;;4.30;99.90;;;;;;5051865;28;20095;-42
2022/01/25 01:15:40;;;;;;;92.70;52.25;;;4.30;99.90;;;;;;5047081;28;20048;-42
2022/01/25 01:29:23;;;;;;;95.18;52.15;;;4.20;99.90;;;;;;5036910;28;20141;-41
2022/01/25 01:32:01;;;;;;;90.95;50.55;;;4.20;99.90;;;;;;5040283;28;20053;-41
2022/01/25 01:37:42;;;;;;;88.03;51.25;;;4.20;99.90;;;;;;5046746;28;20041;-45
2022/01/25 01:40:46;;;;;;;91.45;51.10;;;4.10;99.90;;;;;;5046043;28;20207;-41
2022/01/25 01:43:24;;;;;;;95.07;53.72;;;4.10;99.90;;;;;;5041594;28;20050;-42
2022/01/25 01:45:59;;;;;;;88.03;49.10;;;4.20;99.90;;;;;;5049653;28;20055;-41
2022/01/25 01:48:29;;;;;;;92.70;52.55;;;4.10;99.90;;;;;;5048994;28;20045;-41
2022/01/25 01:50:59;;;;;;;94.28;51.97;;;4.20;99.90;;;;;;5040666;28;20060;-42
2022/01/25 01:53:26;;;;;;;90.22;52.47;;;4.10;99.90;;;;;;5051706;28;20143;-42
2022/01/25 01:55:52;;;;;;;90.10;51.95;;;4.10;99.90;;;;;;5047373;28;20600;-44
2022/01/25 01:58:19;;;;;;;88.78;51.65;;;4.10;99.90;;;;;;5040029;28;20395;-41
2022/01/25 02:00:47;;;;;;;95.00;54.40;;;4.10;99.90;;;;;;5047837;28;20049;-42
2022/01/25 02:03:15;;;;;;;91.32;53.60;;;4.10;99.90;;;;;;5044933;28;20503;-41
2022/01/25 02:05:42;;;;;;;92.55;52.45;;;4.10;99.90;;;;;;5047766;28;20080;-41
2022/01/25 02:08:08;;;;;;;90.93;51.83;;;4.10;99.90;;;;;;5044424;28;20264;-41
2022/01/25 02:10:35;;;;;;;90.38;52.78;;;4.10;99.90;;;;;;5047115;28;20407;-42
2022/01/25 02:13:04;;;;;;;90.35;52.03;;;4.10;99.90;;;;;;5048298;28;20131;-41
2022/01/25 02:15:31;;;;;;;90.28;52.60;;;4.10;99.90;;;;;;5044505;28;20050;-41
2022/01/25 02:23:25;;;;;;;96.80;52.35;;;4.10;99.90;;;;;;5043490;28;20505;-41
2022/01/25 02:25:53;;;;;;;92.95;53.33;;;4.10;99.90;;;;;;5046119;28;20132;-42
2022/01/25 02:28:20;;;;;;;92.15;51.38;;;4.10;99.90;;;;;;5047080;28;20060;-41
2022/01/25 02:30:46;;;;;;;87.95;51.40;;;4.10;99.90;;;;;;5051356;28;20041;-41
2022/01/25 02:33:13;;;;;;;81.00;46.58;;;4.00;99.90;;;;;;5049771;28;20057;-41
2022/01/25 02:35:42;;;;;;;90.25;48.95;;;4.10;99.90;;;;;;5044424;28;20053;-41
2022/01/25 02:38:08;;;;;;;89.93;51.22;;;4.10;99.90;;;;;;5035782;28;20124;-41
2022/01/25 02:40:35;;;;;;;90.15;50.95;;;4.10;99.90;;;;;;5041591;28;20727;-40
2022/01/25 02:43:02;;;;;;;90.10;51.67;;;4.10;99.90;;;;;;5046353;28;20548;-41
2022/01/25 02:45:33;;;;;;;93.82;52.20;;;4.10;99.90;;;;;;5051451;28;20135;-41
2022/01/25 02:50:46;;;;;;;78.68;45.30;;;4.10;99.90;;;;;;5054056;28;20131;-41
2022/01/25 02:53:12;;;;;;;86.82;47.85;;;4.10;99.90;;;;;;5052973;28;20140;-41
2022/01/25 02:55:39;;;;;;;82.18;47.00;;;4.10;99.90;;;;;;5053180;28;20053;-41
2022/01/25 02:58:06;;;;;;;88.03;48.20;;;4.10;99.90;;;;;;5047875;28;20045;-41
2022/01/25 03:00:33;;;;;;;85.55;47.88;;;4.10;99.90;;;;;;5047913;28;20056;-42
2022/01/25 03:03:00;;;;;;;91.45;51.42;;;4.20;99.90;;;;;;5047741;28;20052;-41
2022/01/25 03:05:27;;;;;;;87.82;47.33;;;4.10;99.90;;;;;;5051363;28;20049;-41
2022/01/25 03:07:57;;;;;;;89.93;51.13;;;4.20;99.90;;;;;;5051733;28;20436;-42
2022/01/25 03:10:23;;;;;;;87.68;49.17;;;4.10;99.90;;;;;;5046061;28;20040;-41
2022/01/25 03:12:54;;;;;;;80.82;45.95;;;4.10;99.90;;;;;;5049728;28;20140;-41
2022/01/25 03:15:31;;;;;;;85.88;48.92;;;4.10;99.90;;;;;;5052963;28;20045;-41
2022/01/25 03:18:01;;;;;;;92.10;53.33;;;4.10;99.90;;;;;;5051967;28;20436;-42
2022/01/25 03:20:48;;;;;;;95.60;53.42;;;4.10;99.90;;;;;;5051054;28;20041;-41
2022/01/25 03:23:19;;;;;;;95.18;52.78;;;4.10;99.90;;;;;;5053005;28;20068;-41
2022/01/25 03:25:48;;;;;;;93.28;52.72;;;4.10;99.90;;;;;;5053133;28;20094;-41
2022/01/25 03:28:14;;;;;;;95.07;52.83;;;4.10;99.90;;;;;;5048191;28;20527;-42
2022/01/25 03:30:41;;;;;;;97.22;53.83;;;4.20;99.90;;;;;;5054021;28;20045;-41
2022/01/25 03:33:08;;;;;;;92.47;51.90;;;4.10;99.90;;;;;;5050542;28;20067;-40
2022/01/25 03:35:34;;;;;;;95.70;52.70;;;4.10;99.90;;;;;;5048162;28;20049;-41
2022/01/25 03:38:01;;;;;;;94.05;52.42;;;4.10;99.90;;;;;;5048325;28;20477;-41
2022/01/25 03:40:29;;;;;;;95.57;53.75;;;4.10;99.90;;;;;;5052518;28;20128;-42
2022/01/25 03:42:58;;;;;;;90.05;50.95;;;4.10;99.90;;;;;;5053550;28;20056;-41
2022/01/25 03:45:30;;;;;;;99.30;53.97;;;4.10;99.90;;;;;;5053884;28;20053;-41
2022/01/25 03:49:48;;;;;;;;;;;4.10;99.90;;;;;;5051387;28;20048;-42
2022/01/25 03:50:47;;;;;;;96.13;51.85;;;4.00;99.90;;;;;;5051492;28;19927;-42
2022/01/25 03:53:14;;;;;;;92.00;51.67;;;4.00;99.90;;;;;;5052925;28;20132;-42
2022/01/25 03:55:42;;;;;;;98.18;51.90;;;4.00;99.90;;;;;;5049441;28;20096;-41
2022/01/25 03:58:09;;;;;;;96.65;52.67;;;4.10;99.90;;;;;;5046003;28;20059;-41
2022/01/25 04:00:36;;;;;;;86.93;48.05;;;4.00;99.90;;;;;;5052944;28;20045;-42
2022/01/25 04:03:07;;;;;;;97.88;50.00;;;4.10;99.90;;;;;;5051297;28;20055;-42
2022/01/25 04:05:37;;;;;;;95.00;52.42;;;4.10;99.90;;;;;;5045860;28;20092;-42
2022/01/25 04:08:04;;;;;;;89.00;48.65;;;4.10;99.90;;;;;;5051611;28;20057;-40
2022/01/25 04:10:31;;;;;;;90.55;51.05;;;4.10;99.90;;;;;;5051719;28;20124;-41
2022/01/25 04:12:59;;;;;;;90.60;48.40;;;4.10;99.90;;;;;;5049215;28;20049;-41
2022/01/25 04:15:26;;;;;;;84.40;45.50;;;4.10;99.90;;;;;;5049369;28;20059;-41
2022/01/25 04:18:01;;;;;;;85.35;47.03;;;4.10;99.90;;;;;;5049890;28;20060;-41
2022/01/25 04:20:32;;;;;;;90.28;50.20;;;4.10;99.90;;;;;;5049070;28;20049;-41
2022/01/25 04:25:43;;;;;;;82.20;44.78;;;4.10;99.90;;;;;;5048939;28;20049;-41
2022/01/25 04:28:11;;;;;;;93.05;50.53;;;4.10;99.90;;;;;;5048055;28;20422;-42
2022/01/25 04:30:37;;;;;;;85.07;48.95;;;4.10;99.90;;;;;;5047201;28;20400;-42
2022/01/25 04:33:16;;;;;;;94.80;51.67;;;4.10;99.90;;;;;;5042182;28;20053;-42
2022/01/25 04:35:56;;;;;;;95.80;52.65;;;4.20;99.90;;;;;;5045299;28;20060;-42
2022/01/25 04:49:22;;;;;;;77.38;43.03;;;4.10;99.90;;;;;;5045296;28;20075;-40
2022/01/25 04:51:57;;;;;;;88.13;47.47;;;4.10;99.90;;;;;;5051658;28;20045;-42
2022/01/25 04:54:35;;;;;;;78.30;42.58;;;4.10;99.90;;;;;;5041658;28;20076;-42
2022/01/25 04:57:14;;;;;;;89.22;49.25;;;4.10;99.90;;;;;;5046202;28;20107;-42
2022/01/25 04:59:52;;;;;;;86.50;47.22;;;4.20;99.90;;;;;;5045828;28;20401;-42
2022/01/25 05:02:30;;;;;;;87.43;48.20;;;4.20;99.90;;;;;;5050167;28;20055;-41
2022/01/25 05:05:01;;;;;;;91.13;49.47;;;4.10;99.90;;;;;;5052872;28;20469;-41
2022/01/25 05:07:34;;;;;;;;;;;4.10;99.90;;;;;;5045603;28;20049;-41
2022/01/25 05:10:03;;;;;;;83.03;45.90;;;4.10;99.90;;;;;;5048633;28;19931;-41
2022/01/25 05:12:38;;;;;;;89.78;48.47;;;4.10;99.90;;;;;;5050441;28;20063;-41
2022/01/25 05:15:20;;;;;;;83.22;44.72;;;4.10;99.90;;;;;;5039526;28;20374;-41
2022/01/25 05:17:59;;;;;;;88.65;48.22;;;4.10;99.90;;;;;;5047797;28;20059;-41
2022/01/25 05:23:10;;;;;;;90.88;49.55;;;4.10;99.90;;;;;;5049131;28;20080;-42
2022/01/25 05:25:37;;;;;;;89.70;47.45;;;4.10;99.90;;;;;;5050454;28;20049;-42
2022/01/25 05:28:04;;;;;;;92.13;49.17;;;4.10;99.90;;;;;;5043816;28;20398;-42
2022/01/25 05:30:32;;;;;;;89.97;50.13;;;4.10;99.90;;;;;;5047716;28;20045;-41
2022/01/25 05:32:58;;;;;;;91.65;49.40;;;4.10;99.90;;;;;;5044363;28;20478;-41
2022/01/25 05:35:25;;;;;;;81.68;45.78;;;4.10;99.90;;;;;;5041605;28;20045;-41
2022/01/25 05:37:52;;;;;;;92.78;51.10;;;4.10;99.90;;;;;;5042704;28;20048;-41
2022/01/25 05:40:28;;;;;;;86.20;46.70;;;4.10;99.90;;;;;;5048572;28;20084;-41
2022/01/25 05:45:56;;;;;;;85.63;45.92;;;4.10;99.90;;;;;;5049432;28;20397;-41
2022/01/25 05:48:23;;;;;;;91.00;49.67;;;4.10;99.90;;;;;;5050061;28;20081;-41
2022/01/25 05:50:50;;;;;;;86.63;46.53;;;4.10;99.90;;;;;;5045564;28;20049;-41
2022/01/25 05:53:16;;;;;;;94.13;49.60;;;4.00;99.90;;;;;;5044088;28;20057;-41
2022/01/25 05:55:43;;;;;;;88.93;47.33;;;4.00;99.90;;;;;;5047246;28;20059;-41
2022/01/25 05:58:10;;;;;;;98.57;51.70;;;4.10;99.90;;;;;;5047708;28;20088;-42
2022/01/25 06:00:38;;;;;;;93.30;50.55;;;4.00;99.90;;;;;;5048944;28;20045;-41
2022/01/25 06:03:06;;;;;;;90.57;49.72;;;4.00;99.90;;;;;;5045974;28;20049;-42
2022/01/25 06:05:33;;;;;;;92.50;50.72;;;4.00;99.90;;;;;;5040097;28;20057;-41
2022/01/25 06:08:00;;;;;;;93.25;48.55;;;4.00;99.90;;;;;;5050753;28;20507;-41
2022/01/25 06:10:26;;;;;;;87.55;47.47;;;4.00;99.90;;;;;;5049942;28;20144;-41
2022/01/25 06:12:53;;;;;;;88.63;45.30;;;4.00;99.90;;;;;;5049414;28;20053;-42
2022/01/25 06:15:20;;;;;;;89.68;49.20;;;4.00;99.90;;;;;;5046665;28;20213;-41
2022/01/25 06:17:49;;;;;;;96.28;51.65;;;4.00;99.90;;;;;;5045826;28;20052;-41
2022/01/25 06:20:16;;;;;;;95.97;48.88;;;4.10;99.90;;;;;;5046953;28;20102;-41
2022/01/25 06:22:42;;;;;;;84.68;45.60;;;4.10;99.90;;;;;;5049931;28;20045;-41
2022/01/25 06:25:11;;;;;;;89.93;48.78;;;4.10;99.90;;;;;;5048064;28;20049;-41
2022/01/25 06:27:39;;;;;;;93.05;49.55;;;4.00;99.90;;;;;;5048291;28;20102;-41
2022/01/25 06:30:07;;;;;;;86.03;47.30;;;4.00;99.90;;;;;;5046567;28;20037;-41
2022/01/25 06:32:34;;;;;;;89.22;47.63;;;4.00;99.90;;;;;;5042292;28;20042;-41
2022/01/25 06:35:02;;;;;;;92.20;49.28;;;4.00;99.90;;;;;;5050672;28;20056;-41
2022/01/25 06:37:29;;;;;;;75.72;42.33;;;4.00;99.90;;;;;;5047895;28;20135;-41
2022/01/25 06:39:57;;;;;;;90.07;49.42;;;4.10;99.90;;;;;;5036789;28;20567;-41
2022/01/25 06:42:27;;;;;;;89.68;48.50;;;4.10;99.90;;;;;;5048284;28;20382;-41
2022/01/25 06:44:56;;;;;;;89.82;48.55;;;4.10;99.90;;;;;;5046043;28;20121;-41
2022/01/25 06:47:23;;;;;;;96.75;49.78;;;4.00;99.90;;;;;;5043638;28;20141;-41
2022/01/25 06:49:50;;;;;;;90.30;47.20;;;4.00;99.90;;;;;;5044423;28;20481;-40
2022/01/25 06:52:18;;;;;;;93.28;48.90;;;4.00;99.90;;;;;;5044670;28;20056;-41
2022/01/25 06:54:44;;;;;;;90.20;48.17;;;4.00;99.90;;;;;;5046366;28;20059;-40
2022/01/25 06:57:11;;;;;;;90.60;47.95;;;4.00;99.90;;;;;;5049277;28;20052;-41
2022/01/25 06:59:38;;;;;;;82.15;43.63;;;4.10;99.90;;;;;;5045984;28;20056;-41
2022/01/25 07:02:05;;;;;;;95.82;50.13;;;4.10;99.90;;;;;;5037522;28;20397;-41
2022/01/25 07:04:32;;;;;;;90.55;47.80;;;4.00;99.90;;;;;;5047007;28;20132;-41
2022/01/25 07:06:58;;;;;;;86.18;46.45;;;4.00;99.90;;;;;;5041492;28;20060;-41
2022/01/25 07:09:28;;;;;;;98.47;49.42;;;4.00;99.90;;;;;;5048161;28;20068;-41
2022/01/25 07:11:55;;;;;;;76.93;42.25;;;4.10;99.90;;;;;;5047819;28;20060;-41
2022/01/25 07:14:21;;;;;;;81.80;44.05;;;4.00;99.90;;;;;;5045791;28;20148;-41
2022/01/25 07:16:48;;;;;;;91.32;46.90;;;4.10;99.90;;;;;;5048529;28;20057;-41
2022/01/25 07:19:15;;;;;;;90.93;47.05;;;4.00;99.90;;;;;;5046728;28;20128;-41
2022/01/25 07:21:42;;;;;;;90.22;49.38;;;4.10;99.90;;;;;;5048166;28;20044;-41
2022/01/25 07:24:08;;;;;;;92.07;47.13;;;4.00;99.90;;;;;;5047959;28;20051;-41
2022/01/25 07:26:36;;;;;;;86.85;46.40;;;4.00;99.90;;;;;;5048924;28;20132;-41
2022/01/25 07:29:03;;;;;;;88.15;46.47;;;4.00;99.90;;;;;;5044463;28;20054;-41
2022/01/25 07:31:30;;;;;;;87.53;46.72;;;4.00;99.90;;;;;;5052068;28;20055;-41
2022/01/25 07:33:56;;;;;;;88.30;46.70;;;4.00;99.90;;;;;;5047915;28;20400;-41
2022/01/25 07:36:23;;;;;;;85.40;45.22;;;4.00;99.90;;;;;;5049241;28;20059;-41
2022/01/25 07:38:50;;;;;;;86.97;46.95;;;4.00;99.90;;;;;;5051865;28;20055;-41
2022/01/25 07:41:16;;;;;;;95.43;48.13;;;4.00;99.90;;;;;;5051275;28;20481;-42
2022/01/25 07:43:44;;;;;;;91.03;48.67;;;4.00;99.90;;;;;;5049996;28;20053;-41
2022/01/25 07:46:11;;;;;;;92.18;48.05;;;4.00;99.90;;;;;;5048885;28;20418;-41
2022/01/25 07:48:38;;;;;;;82.78;43.15;;;4.00;99.90;;;;;;5049935;28;20136;-41
2022/01/25 07:51:04;;;;;;;86.55;45.83;;;4.00;99.90;;;;;;5050958;28;20051;-41
2022/01/25 07:53:31;;;;;;;90.13;46.67;;;4.00;99.90;;;;;;5046534;28;20515;-41
2022/01/25 07:55:58;;;;;;;86.85;45.38;;;4.00;99.90;;;;;;5050059;28;20073;-41
2022/01/25 07:58:25;;;;;;;94.43;49.55;;;4.00;99.90;;;;;;5042434;28;20107;-41
2022/01/25 08:00:53;;;;;;;92.22;47.85;;;4.00;99.90;;;;;;5043562;28;20095;-41
2022/01/25 08:03:19;;;;;;;93.72;48.20;;;4.00;99.90;;;;;;5044413;28;20056;-40
2022/01/25 08:05:48;;;;;;;96.90;48.83;;;4.00;99.90;;;;;;5042793;28;20041;-42
2022/01/25 08:08:14;;;;;;;88.68;47.08;;;4.00;99.90;;;;;;5051172;28;20135;-41
2022/01/25 08:10:41;;;;;;;93.05;47.95;;;4.00;99.90;;;;;;5049502;28;20053;-41
2022/01/25 08:13:08;;;;;;;93.57;48.90;;;4.00;99.90;;;;;;5051396;28;20075;-41
2022/01/25 08:15:34;;;;;;;84.78;46.15;;;4.00;99.90;;;;;;5042498;28;20051;-41
2022/01/25 08:18:03;;;;;;;91.93;47.92;;;4.00;99.90;;;;;;5049046;28;20493;-41
2022/01/25 08:20:29;;;;;;;92.80;46.33;;;4.00;99.90;;;;;;5042837;28;20142;-42
2022/01/25 08:22:56;;;;;;;93.90;47.25;;;4.00;99.90;;;;;;5045694;28;20055;-41
2022/01/25 08:25:23;;;;;;;90.47;46.70;;;4.00;99.90;;;;;;5043317;28;20051;-42
2022/01/25 08:27:49;;;;;;;83.50;43.83;;;4.00;99.90;;;;;;5041838;28;20053;-42
2022/01/25 08:30:16;;;;;;;85.88;45.40;;;4.10;99.90;;;;;;5048161;28;20135;-42
2022/01/25 08:32:43;;;;;;;84.43;45.17;;;4.10;99.90;;;;;;5047034;28;20140;-41
2022/01/25 08:35:11;;;;;;;93.13;47.20;;;4.10;99.90;;;;;;5044931;28;20091;-41
2022/01/25 08:37:38;;;;;;;88.97;48.22;;;4.10;99.90;;;;;;5039063;28;20059;-41
2022/01/25 08:40:06;;;;;;;92.35;47.40;;;4.10;99.90;;;;;;5045514;28;20056;-42
2022/01/25 08:42:33;;;;;;;93.28;45.72;;;4.10;99.90;;;;;;5046702;28;20455;-41
2022/01/25 08:45:00;;;;;;;94.38;47.38;;;4.10;99.90;;;;;;5047388;28;20386;-41
2022/01/25 08:47:26;;;;;;;94.50;47.20;;;4.20;99.90;;;;;;5052662;28;20132;-41
2022/01/25 08:49:53;;;;;;;87.55;44.35;;;4.10;99.90;;;;;;5047018;28;20059;-42
2022/01/25 08:52:21;;;;;;;86.30;45.90;;;4.10;99.90;;;;;;5044721;28;20436;-41
2022/01/25 08:54:48;;;;;;;93.38;47.30;;;4.10;99.90;;;;;;5047130;28;20050;-41
2022/01/25 08:57:15;;;;;;;89.88;45.40;;;4.10;99.90;;;;;;5044266;28;20100;-41
2022/01/25 08:59:42;;;;;;;89.13;46.35;;;4.10;99.90;;;;;;5051102;28;20049;-41
2022/01/25 09:02:08;;;;;;;89.25;46.13;;;4.10;99.90;;;;;;5051279;28;20128;-41
2022/01/25 09:04:35;;;;;;;87.43;43.30;;;4.10;99.90;;;;;;5042584;28;20501;-41
2022/01/25 09:07:02;;;;;;;99.18;49.17;;;4.10;99.90;;;;;;5049481;28;20057;-41
2022/01/25 09:09:30;;;;;;;82.45;43.42;;;4.10;99.90;;;;;;5049719;28;20486;-41
2022/01/25 09:11:57;;;;;;;85.97;45.33;;;4.10;99.90;;;;;;5044655;28;20139;-41
2022/01/25 09:14:24;;;;;;;96.78;49.22;;;4.20;99.90;;;;;;5042161;28;20045;-41
2022/01/25 09:16:50;;;;;;;95.47;47.95;;;4.10;99.90;;;;;;5037241;28;20382;-41
2022/01/25 09:19:17;;;;;;;93.63;46.40;;;4.10;99.90;;;;;;5034600;28;20054;-41
2022/01/25 09:21:44;;;;;;;98.40;49.92;;;4.10;99.90;;;;;;5041267;28;20142;-39
2022/01/25 09:24:11;;;;;;;92.53;48.88;;;4.20;99.90;;;;;;5035274;28;20264;-41
2022/01/25 09:26:39;;;;;;;82.20;42.00;;;4.10;99.90;;;;;;5045462;28;20080;-41
2022/01/25 09:29:05;;;;;;;81.65;43.65;;;4.20;99.90;;;;;;5050609;28;20102;-41
2022/01/25 09:31:32;;;;;;;93.95;48.50;;;4.20;99.90;;;;;;5046095;28;20059;-41
2022/01/25 09:33:59;;;;;;;87.13;44.85;;;4.20;99.90;;;;;;5039078;28;20048;-41
2022/01/25 09:36:25;;;;;;;83.80;44.20;;;4.20;99.90;;;;;;5046475;28;20044;-41
2022/01/25 09:38:52;;;;;;;96.03;46.70;;;4.20;99.90;;;;;;5044747;28;20057;-41
2022/01/25 09:41:19;;;;;;;84.78;43.95;;;4.30;99.90;;;;;;5051647;28;20068;-41
2022/01/25 09:43:47;;;;;;;89.10;47.58;;;4.30;99.90;;;;;;5044260;28;20057;-42
2022/01/25 09:46:14;;;;;;;83.93;44.55;;;4.30;99.90;;;;;;5047992;28;20060;-41
2022/01/25 09:48:44;;;;;;;94.00;46.33;;;4.30;99.90;;;;;;5051460;28;20358;-42
2022/01/25 09:51:11;;;;;;;90.03;43.85;;;4.30;99.90;;;;;;5048519;28;20049;-41
2022/01/25 09:53:38;;;;;;;85.28;44.25;;;4.30;99.90;;;;;;5040400;28;20131;-41
2022/01/25 09:56:05;;;;;;;89.28;46.17;;;4.30;99.90;;;;;;5050708;28;20451;-41
2022/01/25 09:58:32;;;;;;;91.60;46.45;;;4.40;99.90;;;;;;5047001;28;20393;-41
2022/01/25 10:01:01;;;;;;;89.18;45.55;;;4.30;99.90;;;;;;5043758;28;20049;-41
2022/01/25 10:03:32;;;;;;;92.28;46.88;;;4.30;99.90;;;;;;5042663;28;20045;-41
2022/01/25 10:06:01;;;;;;;93.78;45.08;;;4.30;99.90;;;;;;5041644;28;20069;-42
2022/01/25 10:08:29;;;;;;;92.63;44.92;;;4.40;99.90;;;;;;5044590;28;20057;-41
2022/01/25 10:10:57;;;;;;;99.05;48.17;;;4.30;99.90;;;;;;5047933;28;20067;-42
2022/01/25 10:13:25;;;;;;;94.68;48.22;;;4.40;99.90;;;;;;5049345;28;20051;-41
2022/01/25 10:15:52;;;;;;;94.35;46.55;;;4.40;99.90;;;;;;5045472;28;20550;-41
2022/01/25 10:18:20;;;;;;;97.25;48.55;;;4.40;99.90;;;;;;5047902;28;20123;-40
2022/01/25 10:20:49;;;;;;;94.10;47.75;;;4.40;99.90;;;;;;5022365;28;20404;-41
2022/01/25 10:23:18;;;;;;;100.13;49.13;;;4.40;99.90;;;;;;5046699;28;20037;-41
2022/01/25 10:25:46;;;;;;;92.30;46.50;;;4.40;99.90;;;;;;5041749;28;20366;-41
2022/01/25 10:28:14;;;;;;;89.93;46.15;;;4.40;99.90;;;;;;5050320;28;20400;-41
2022/01/25 10:30:52;;;;;;;92.10;46.95;;;4.40;99.90;;;;;;5041706;28;20060;-41
2022/01/25 10:33:24;;;;;;;95.65;48.25;;;4.40;99.90;;;;;;5048563;28;20041;-41
2022/01/25 10:35:50;;;;;;;88.60;45.33;;;4.40;99.90;;;;;;5048206;28;20041;-40
2022/01/25 10:38:19;;;;;;;91.90;45.80;;;4.40;99.90;;;;;;5044716;28;20507;-40
2022/01/25 10:40:55;;;;;;;95.93;45.95;;;4.40;99.90;;;;;;5043771;28;20064;-40
2022/01/25 10:43:22;;;;;;;92.18;46.28;;;4.40;99.90;;;;;;5041950;28;20077;-41
2022/01/25 10:46:10;;;;;;;91.07;45.58;;;4.40;99.90;;;;;;5033086;28;20049;-40
2022/01/25 10:48:39;;;;;;;98.30;50.55;;;4.40;99.90;;;;;;5043983;28;20069;-40
2022/01/25 10:51:07;;;;;;;95.88;47.42;;;4.50;99.90;;;;;;5048437;28;20076;-40
2022/01/25 10:53:33;;;;;;;102.85;48.53;;;4.50;99.90;;;;;;5046156;28;20049;-41
2022/01/25 10:56:00;;;;;;;100.10;50.22;;;4.60;99.90;;;;;;5049798;28;20131;-40
2022/01/25 10:58:27;;;;;;;98.22;47.50;;;4.50;99.90;;;;;;5042697;28;20045;-41
2022/01/25 11:00:54;;;;;;;99.40;46.88;;;4.50;99.90;;;;;;5048043;28;20055;-43
2022/01/25 11:03:27;;;;;;;96.90;48.30;;;4.50;99.90;;;;;;5049061;28;20045;-41
2022/01/25 11:05:55;;;;;;;99.25;48.17;;;4.50;99.90;;;;;;5050408;28;20473;-41
2022/01/25 11:08:22;;;;;;;93.93;47.22;;;4.50;99.90;;;;;;5050572;28;20049;-41
2022/01/25 11:10:53;;;;;;;98.97;46.88;;;4.60;99.90;;;;;;5044636;28;20059;-41
2022/01/25 11:13:35;;;;;;;90.57;46.70;;;4.50;99.90;;;;;;5031988;28;20080;-40
2022/01/25 11:16:03;;;;;;;98.63;49.22;;;4.60;99.90;;;;;;5051656;28;20053;-42
2022/01/25 11:18:31;;;;;;;101.60;51.72;;;4.60;99.90;;;;;;5052025;28;20045;-41
2022/01/25 11:21:00;;;;;;;95.00;47.70;;;4.60;99.90;;;;;;5047252;28;20493;-41
2022/01/25 11:23:27;;;;;;;92.95;47.00;;;4.60;99.90;;;;;;5050761;28;20045;-41
2022/01/25 11:25:54;;;;;;;88.38;46.17;;;4.60;99.90;;;;;;5046087;28;20051;-42
2022/01/25 11:28:21;;;;;;;96.82;47.22;;;4.70;99.90;;;;;;5052517;28;20055;-41
2022/01/25 11:30:48;;;;;;;99.97;51.58;;;4.60;99.90;;;;;;5051065;28;20513;-42
2022/01/25 11:33:14;;;;;;;93.50;46.40;;;4.70;99.90;;;;;;5045684;28;20055;-41
2022/01/25 11:35:41;;;;;;;94.47;48.05;;;4.70;99.90;;;;;;5040797;28;20045;-41
2022/01/25 11:38:09;;;;;;;97.72;47.83;;;4.70;99.90;;;;;;5048668;28;20051;-41
2022/01/25 11:40:38;;;;;;;94.25;46.95;;;4.70;99.90;;;;;;5048884;28;20051;-41
2022/01/25 11:43:07;;;;;;;96.28;48.20;;;4.60;99.90;;;;;;5043794;28;20128;-43
2022/01/25 11:45:34;;;;;;;101.63;49.95;;;4.70;99.90;;;;;;5042040;28;20378;-42
2022/01/25 11:48:01;;;;;;;88.43;44.30;;;4.70;99.90;;;;;;5045376;28;20037;-42
2022/01/25 11:50:29;;;;;;;94.03;46.63;;;4.70;99.90;;;;;;5048798;28;20060;-41
2022/01/25 11:52:56;;;;;;;100.20;48.67;;;4.70;99.90;;;;;;5051544;28;20060;-42
2022/01/25 11:55:26;;;;;;;98.18;47.15;;;4.70;99.90;;;;;;5046014;28;20541;-41
2022/01/25 11:57:57;;;;;;;95.55;48.25;;;4.80;99.90;;;;;;5047523;28;20061;-41
2022/01/25 12:00:35;;;;;;;94.37;46.23;;;4.80;99.90;;;;;;5044553;28;20043;-41
2022/01/25 12:03:04;;;;;;;97.28;46.53;;;4.80;99.90;;;;;;5049047;28;20412;-41
2022/01/25 12:05:33;;;;;;;97.35;48.35;;;4.80;99.90;;;;;;5047296;28;20064;-41
2022/01/25 12:08:08;;;;;;;95.85;48.22;;;4.80;99.90;;;;;;5050650;28;20126;-41
2022/01/25 12:10:38;;;;;;;97.05;47.22;;;4.80;99.90;;;;;;5049595;28;20053;-41
2022/01/25 12:13:16;;;;;;;99.13;48.88;;;4.80;99.90;;;;;;5052080;28;20119;-41
2022/01/25 12:15:44;;;;;;;99.53;48.42;;;4.80;99.90;;;;;;5050236;28;20067;-41
2022/01/25 12:18:11;;;;;;;93.95;47.00;;;4.80;99.90;;;;;;5046099;28;20052;-41
2022/01/25 12:20:48;;;;;;;98.43;49.63;;;4.80;99.90;;;;;;5039850;28;20056;-41
2022/01/25 12:23:18;;;;;;;91.57;46.25;;;4.80;99.90;;;;;;5050098;28;20057;-41
2022/01/25 12:25:51;;;;;;;89.68;45.70;;;4.80;99.90;;;;;;5043636;28;20049;-42
2022/01/25 12:28:27;;;;;;;90.47;45.05;;;4.80;99.90;;;;;;5038686;28;20135;-41
2022/01/25 12:30:53;;;;;;;98.93;47.17;;;4.80;99.90;;;;;;5050408;28;20111;-41
2022/01/25 12:33:21;;;;;;;96.65;46.97;;;4.80;99.90;;;;;;5047200;28;20505;-41
2022/01/25 12:35:49;;;;;;;100.68;48.80;;;4.80;99.90;;;;;;5050833;28;20337;-42
2022/01/25 12:38:21;;;;;;;90.13;45.45;;;4.90;99.90;;;;;;5038823;28;20061;-41
2022/01/25 12:40:57;;;;;;;98.93;48.45;;;4.80;99.90;;;;;;5047062;28;20140;-42
2022/01/25 12:43:25;;;;;;;98.35;47.80;;;4.80;99.90;;;;;;5047335;28;20048;-41
2022/01/25 12:45:55;;;;;;;90.70;46.05;;;4.80;99.90;;;;;;5049276;28;20045;-41
2022/01/25 12:48:24;;;;;;;95.97;47.47;;;4.90;99.90;;;;;;5050563;28;20452;-41
2022/01/25 12:50:52;;;;;;;92.20;46.05;;;4.80;99.90;;;;;;5046747;28;20048;-42
2022/01/25 12:53:21;;;;;;;95.22;46.47;;;4.80;99.90;;;;;;5049104;28;20168;-42
2022/01/25 12:55:49;;;;;;;93.07;46.00;;;4.90;99.90;;;;;;5043854;28;20570;-42
2022/01/25 12:58:19;;;;;;;99.63;44.70;;;4.90;99.90;;;;;;5046285;28;20048;-41
2022/01/25 13:00:48;;;;;;;98.65;48.65;;;4.90;99.90;;;;;;5044144;28;20404;-41
2022/01/25 13:03:17;;;;;;;98.45;45.92;;;4.90;99.90;;;;;;5047355;28;20089;-41
2022/01/25 13:05:47;;;;;;;92.78;45.00;;;4.90;99.90;;;;;;5049921;28;20144;-42
2022/01/25 13:08:21;;;;;;;97.85;48.38;;;4.90;99.90;;;;;;5052532;28;20059;-42
2022/01/25 13:10:49;;;;;;;95.07;47.33;;;4.90;99.90;;;;;;5052323;28;20136;-41
2022/01/25 13:13:27;;;;;;;92.13;45.63;;;5.00;99.90;;;;;;5049506;28;20045;-41
2022/01/25 13:15:56;;;;;;;89.03;43.13;;;4.90;99.90;;;;;;5050553;28;20493;-41
2022/01/25 13:18:26;;;;;;;103.75;47.13;;;4.90;99.90;;;;;;5051281;28;20416;-41
2022/01/25 13:21:07;;;;;;;89.85;45.50;;;4.90;99.90;;;;;;5048904;28;20076;-41
2022/01/25 13:23:34;;;;;;;91.13;44.97;;;4.90;99.90;;;;;;5041696;28;20210;-41
2022/01/25 13:26:13;;;;;;;92.72;43.28;;;4.80;99.90;;;;;;5049525;28;20092;-42
2022/01/25 13:28:55;;;;;;;89.32;43.92;;;4.80;99.90;;;;;;5048129;28;20448;-41
2022/01/25 13:31:23;;;;;;;91.32;43.22;;;4.80;99.90;;;;;;5042658;28;20045;-41
2022/01/25 13:33:50;;;;;;;102.93;48.72;;;4.80;99.90;;;;;;5040666;28;20045;-41
2022/01/25 13:36:20;;;;;;;86.38;42.30;;;4.80;99.90;;;;;;5046054;28;20132;-41
2022/01/25 13:38:48;;;;;;;92.55;45.67;;;4.80;99.90;;;;;;5046785;28;20103;-42
2022/01/25 13:41:20;;;;;;;85.65;40.83;;;4.90;99.90;;;;;;5048661;28;20098;-41
2022/01/25 13:46:33;;;;;;;86.88;44.15;;;4.80;99.90;;;;;;5049267;28;19920;-41
2022/01/25 13:49:01;;;;;;;75.78;39.92;;;4.80;99.90;;;;;;5039124;28;20051;-42
2022/01/25 13:51:29;;;;;;;90.45;45.33;;;4.80;99.90;;;;;;5041116;28;20132;-41
2022/01/25 13:53:57;;;;;;;90.63;44.00;;;4.90;99.90;;;;;;5050285;28;20071;-41
2022/01/25 13:56:25;;;;;;;87.18;42.83;;;4.90;99.90;;;;;;5048859;28;20532;-42